Time;durP1;ratioP1;P1;durP2;ratioP2;P2;SDS_P1;SDS_P2;PMS_P1;PMS_P2;Temp;Humidity;BMP_temperature;BMP_pressure;BME280_temperature;BME280_humidity;BME280_pressure;Samples;Min_cycle;Max_cycle;Signal;HPM_P1;HPM_P2
2021/05/20 00:02:16;;;;;;;7.78;3.70;;;;;;;5.59;53.24;101846.97;4958209;28;20042;-68
2021/05/20 00:04:42;;;;;;;6.10;3.40;;;;;;;5.48;53.22;101838.38;4975876;28;20424;-68
2021/05/20 00:07:09;;;;;;;5.05;3.22;;;;;;;5.42;53.51;101841.84;4959254;28;20669;-69
2021/05/20 00:09:35;;;;;;;4.13;3.33;;;;;;;5.53;53.67;101846.16;4958960;28;20121;-68
2021/05/20 00:12:00;;;;;;;4.25;2.80;;;;;;;5.47;53.71;101852.19;4965442;28;20531;-69
2021/05/20 00:14:27;;;;;;;5.25;3.25;;;;;;;5.56;53.38;101846.13;4952304;28;20684;-68
2021/05/20 00:16:54;;;;;;;4.75;3.10;;;;;;;5.52;53.49;101845.25;4971987;28;20565;-68
2021/05/20 00:19:19;;;;;;;4.75;2.33;;;;;;;5.53;53.38;101851.31;4958804;28;20115;-68
2021/05/20 00:21:45;;;;;;;4.82;3.10;;;;;;;5.54;53.66;101853.91;4960058;28;20101;-68
2021/05/20 00:24:11;;;;;;;3.67;3.25;;;;;;;5.51;53.54;101851.31;4974164;28;20054;-68
2021/05/20 00:26:36;;;;;;;4.00;3.03;;;;;;;5.50;53.46;101854.75;4972099;28;20034;-68
2021/05/20 00:29:02;;;;;;;3.38;2.15;;;;;;;5.49;53.44;101860.84;4956108;28;20033;-68
2021/05/20 00:31:27;;;;;;;3.40;2.63;;;;;;;5.45;53.49;101864.28;4971178;28;20046;-68
2021/05/20 00:33:53;;;;;;;6.80;2.80;;;;;;;5.39;53.62;101861.72;4958172;28;20396;-68
2021/05/20 00:36:18;;;;;;;5.35;3.60;;;;;;;5.28;53.62;101859.16;4964486;28;20392;-68
2021/05/20 00:38:44;;;;;;;4.15;2.90;;;;;;;5.27;53.70;101860.03;4956352;28;20026;-69
2021/05/20 00:41:10;;;;;;;4.30;3.20;;;;;;;5.28;53.71;101860.88;4960417;28;20107;-68
2021/05/20 00:43:35;;;;;;;5.70;3.45;;;;;;;5.17;53.58;101859.19;4972296;28;20038;-68
2021/05/20 00:46:02;;;;;;;5.47;3.80;;;;;;;5.06;54.04;101860.94;4955834;28;20035;-68
2021/05/20 00:48:28;;;;;;;6.25;2.75;;;;;;;5.14;54.10;101858.31;4971659;28;20102;-68
2021/05/20 00:50:54;;;;;;;5.90;4.05;;;;;;;5.22;54.07;101861.78;4956742;28;20184;-68
2021/05/20 00:53:19;;;;;;;8.75;3.92;;;;;;;5.32;54.14;101863.47;4970334;28;20030;-68
2021/05/20 00:55:48;;;;;;;6.57;3.40;;;;;;;5.29;53.80;101865.22;4942219;28;20896;-68
2021/05/20 00:58:15;;;;;;;5.05;3.30;;;;;;;5.21;53.89;101868.69;4955167;28;20038;-68
2021/05/20 01:00:41;;;;;;;6.60;3.95;;;;;;;5.25;53.96;101869.53;4970818;28;20034;-70
2021/05/20 01:03:07;;;;;;;3.90;3.30;;;;;;;5.28;54.03;101868.66;4959280;28;20070;-68
2021/05/20 01:05:32;;;;;;;3.85;2.78;;;;;;;5.35;53.74;101875.56;4944231;28;20026;-68
2021/05/20 01:07:58;;;;;;;6.80;3.88;;;;;;;5.39;53.95;101874.69;4960461;28;20403;-68
2021/05/20 01:10:24;;;;;;;4.55;3.00;;;;;;;5.32;53.80;101878.16;4974230;28;20430;-68
2021/05/20 01:12:50;;;;;;;5.20;3.45;;;;;;;5.30;53.86;101880.78;4961041;28;20048;-68
2021/05/20 01:15:23;;;;;;;6.97;3.30;;;;;;;5.27;53.86;101874.72;4961224;28;20031;-69
2021/05/20 01:17:57;;;;;;;4.97;3.13;;;;;;;5.23;53.76;101869.56;4963796;28;20034;-68
2021/05/20 01:20:27;;;;;;;5.05;3.40;;;;;;;5.15;53.74;101871.28;4974300;28;20030;-68
2021/05/20 01:23:09;;;;;;;6.65;3.90;;;;;;;5.13;54.22;101879.94;4977075;28;20057;-68
2021/05/20 01:25:36;;;;;;;6.78;4.38;;;;;;;5.14;54.29;101876.47;4960809;28;20061;-68
2021/05/20 01:28:09;;;;;;;8.23;4.50;;;;;;;5.25;54.02;101878.16;4977453;28;20150;-68
2021/05/20 01:30:37;;;;;;;8.55;4.28;;;;;;;5.31;53.68;101871.25;4963848;28;20034;-68
2021/05/20 01:33:03;;;;;;;8.00;5.10;;;;;;;5.34;53.82;101873.84;4975354;28;20031;-68
2021/05/20 01:35:29;;;;;;;6.45;4.93;;;;;;;5.34;54.12;101879.03;4976745;28;20523;-68
2021/05/20 01:40:55;;;;;;;;;;;;;;;5.32;53.82;101872.97;4978771;28;20170;-68
2021/05/20 01:43:21;;;;;;;8.40;5.20;;;;;;;5.24;53.95;101873.84;4979349;28;19917;-69
2021/05/20 01:45:50;;;;;;;10.25;5.35;;;;;;;5.25;53.88;101872.97;4976224;28;20534;-68
2021/05/20 01:48:16;;;;;;;7.70;4.50;;;;;;;5.16;53.77;101873.00;4967436;28;20089;-68
2021/05/20 01:50:41;;;;;;;5.63;4.63;;;;;;;5.18;53.93;101876.44;4974602;28;20047;-68
2021/05/20 01:53:07;;;;;;;7.68;5.25;;;;;;;5.12;54.07;101871.25;4973651;28;20040;-68
2021/05/20 01:55:33;;;;;;;9.85;5.63;;;;;;;5.14;54.60;101873.88;4950369;28;20039;-68
2021/05/20 01:57:58;;;;;;;8.90;5.97;;;;;;;5.16;54.46;101865.22;4974205;28;20045;-69
2021/05/20 02:00:24;;;;;;;6.72;4.72;;;;;;;5.15;54.50;101876.47;4960071;28;20041;-68
2021/05/20 02:02:49;;;;;;;8.80;5.90;;;;;;;5.11;54.61;101869.56;4965101;28;20038;-68
2021/05/20 02:05:16;;;;;;;8.88;5.55;;;;;;;5.08;54.63;101859.19;4947660;28;20023;-67
2021/05/20 02:07:42;;;;;;;11.07;6.13;;;;;;;5.03;54.46;101860.91;4975625;28;20451;-68
2021/05/20 02:10:08;;;;;;;9.38;4.60;;;;;;;4.93;54.71;101860.06;4955720;28;20050;-68
2021/05/20 02:12:33;;;;;;;6.88;4.65;;;;;;;4.82;54.68;101856.59;4974015;28;20498;-68
2021/05/20 02:14:59;;;;;;;6.88;4.75;;;;;;;4.75;54.67;101854.88;4973031;28;20022;-68
2021/05/20 02:17:24;;;;;;;9.38;4.53;;;;;;;4.72;54.56;101853.16;4944236;28;20592;-67
2021/05/20 02:19:50;;;;;;;11.45;5.63;;;;;;;4.73;54.47;101857.44;4956170;28;20046;-67
2021/05/20 02:22:15;;;;;;;7.40;4.80;;;;;;;4.60;54.77;101855.72;4957649;28;20041;-67
2021/05/20 02:24:41;;;;;;;6.68;4.38;;;;;;;4.57;54.74;101847.97;4976261;28;20182;-67
2021/05/20 02:27:06;;;;;;;8.88;4.70;;;;;;;4.64;54.56;101862.63;4974189;28;20130;-68
2021/05/20 02:29:32;;;;;;;6.90;4.78;;;;;;;4.82;54.34;101860.03;4958980;28;20038;-69
2021/05/20 02:31:57;;;;;;;5.40;3.92;;;;;;;4.78;54.20;101866.06;4974482;28;20038;-68
2021/05/20 02:34:23;;;;;;;7.82;4.55;;;;;;;4.73;54.41;101867.81;4960701;28;20035;-68
2021/05/20 02:36:48;;;;;;;6.03;4.50;;;;;;;4.63;54.33;101866.94;4961584;28;20144;-69
2021/05/20 02:39:14;;;;;;;8.13;4.93;;;;;;;4.58;54.42;101862.63;4957446;28;20661;-68
2021/05/20 02:41:39;;;;;;;5.72;4.30;;;;;;;4.64;54.31;101857.44;4977362;28;20567;-68
2021/05/20 02:44:05;;;;;;;4.38;3.03;;;;;;;4.66;54.09;101857.47;4958450;28;20528;-68
2021/05/20 02:46:31;;;;;;;6.38;3.38;;;;;;;4.60;54.17;101855.72;4972433;28;20042;-68
2021/05/20 02:48:56;;;;;;;3.70;2.92;;;;;;;4.51;54.18;101858.31;4959782;28;20034;-68
2021/05/20 02:51:22;;;;;;;5.53;3.80;;;;;;;4.46;54.28;101853.13;4965508;28;20093;-69
2021/05/20 02:53:48;;;;;;;3.78;3.20;;;;;;;4.42;54.28;101854.84;4956734;28;20038;-68
2021/05/20 02:56:14;;;;;;;7.53;3.90;;;;;;;4.46;54.33;101854.84;4974785;28;20090;-69
2021/05/20 02:58:39;;;;;;;7.15;3.20;;;;;;;4.42;54.27;101857.41;4964943;28;20030;-68
2021/05/20 03:01:05;;;;;;;5.22;3.67;;;;;;;4.45;54.15;101861.72;4976457;28;20038;-68
2021/05/20 03:03:31;;;;;;;5.03;3.22;;;;;;;4.52;54.09;101857.44;4957471;28;20123;-68
2021/05/20 03:05:58;;;;;;;5.60;3.83;;;;;;;4.48;54.22;101860.91;4972783;28;20168;-68
2021/05/20 03:08:24;;;;;;;5.38;3.90;;;;;;;4.46;53.99;101857.44;4972314;28;20041;-68
2021/05/20 03:10:50;;;;;;;5.15;3.47;;;;;;;4.36;54.38;101862.63;4960913;28;20672;-68
2021/05/20 03:13:15;;;;;;;7.22;3.08;;;;;;;4.44;54.11;101870.38;4944603;28;20750;-68
2021/05/20 03:15:41;;;;;;;9.02;3.63;;;;;;;4.33;54.39;101869.50;4971207;28;20034;-68
2021/05/20 03:18:06;;;;;;;7.03;4.07;;;;;;;4.32;54.28;101865.16;4940488;28;20031;-68
2021/05/20 03:20:32;;;;;;;6.45;4.35;;;;;;;4.31;54.27;101859.13;4957066;28;20892;-69
2021/05/20 03:22:58;;;;;;;7.35;3.42;;;;;;;4.34;54.34;101866.03;4962175;28;20466;-69
2021/05/20 03:25:24;;;;;;;6.50;3.90;;;;;;;4.34;54.31;101859.16;4960618;28;20080;-68
2021/05/20 03:27:49;;;;;;;8.70;4.72;;;;;;;4.34;54.39;101856.56;4976971;28;20038;-68
2021/05/20 03:30:15;;;;;;;6.63;4.30;;;;;;;4.32;54.51;101853.09;4974655;28;20031;-69
2021/05/20 03:32:40;;;;;;;8.57;4.00;;;;;;;4.28;54.24;101851.38;4957334;28;20042;-68
2021/05/20 03:35:07;;;;;;;4.95;3.58;;;;;;;4.22;54.55;101861.69;4972536;28;20066;-68
2021/05/20 03:37:34;;;;;;;8.23;4.00;;;;;;;4.15;54.91;101866.00;4958687;28;20042;-68
2021/05/20 03:40:00;;;;;;;5.03;3.10;;;;;;;4.13;54.70;101861.69;4960079;28;20084;-68
2021/05/20 03:42:25;;;;;;;4.65;3.00;;;;;;;4.10;54.90;101862.53;4965544;28;20046;-68
2021/05/20 03:44:51;;;;;;;4.88;3.60;;;;;;;4.10;54.75;101856.50;4964634;28;20101;-68
2021/05/20 03:47:16;;;;;;;4.32;2.95;;;;;;;4.14;54.79;101863.41;4958600;28;20368;-68
2021/05/20 03:49:42;;;;;;;5.00;3.15;;;;;;;4.25;54.69;101858.25;4957392;28;20114;-68
2021/05/20 03:52:07;;;;;;;3.63;2.97;;;;;;;4.32;54.90;101866.06;4957747;28;20528;-68
2021/05/20 03:54:33;;;;;;;8.05;4.55;;;;;;;4.45;54.95;101863.47;4959774;28;20118;-68
2021/05/20 03:56:59;;;;;;;6.40;4.38;;;;;;;4.57;54.87;101868.69;4975281;28;20046;-68
2021/05/20 03:59:24;;;;;;;7.65;5.00;;;;;;;4.71;54.82;101866.94;4975838;28;20094;-68
2021/05/20 04:01:50;;;;;;;20.23;6.13;;;;;;;4.71;55.10;101868.69;4971415;28;20045;-68
2021/05/20 04:04:15;;;;;;;9.40;5.18;;;;;;;4.87;55.41;101867.81;4958726;28;20516;-68
2021/05/20 04:06:41;;;;;;;6.28;4.25;;;;;;;5.10;54.48;101874.72;4943686;28;20113;-68
2021/05/20 04:09:06;;;;;;;8.10;5.32;;;;;;;5.29;54.20;101884.22;4942427;28;20042;-68
2021/05/20 04:11:32;;;;;;;6.78;3.92;;;;;;;5.49;54.51;101872.94;4957789;28;20038;-68
2021/05/20 04:13:57;;;;;;;6.05;4.68;;;;;;;5.84;53.76;101880.63;4963110;28;20105;-68
2021/05/20 04:16:25;;;;;;;6.35;4.70;;;;;;;6.20;53.47;101876.09;4959941;28;20034;-68
2021/05/20 04:18:51;;;;;;;8.90;5.05;;;;;;;6.24;53.08;101877.81;4957674;28;20093;-68
2021/05/20 04:21:17;;;;;;;7.30;4.40;;;;;;;6.39;52.63;101869.94;4974290;28;20022;-69
2021/05/20 04:23:44;;;;;;;8.95;5.53;;;;;;;6.22;52.86;101871.78;4955819;28;20618;-69
2021/05/20 04:26:10;;;;;;;9.07;5.57;;;;;;;6.34;53.27;101866.53;4956921;28;20185;-69
2021/05/20 04:28:35;;;;;;;6.97;5.15;;;;;;;6.46;53.21;101869.06;4962107;28;20049;-68
2021/05/20 04:31:01;;;;;;;13.75;7.00;;;;;;;6.15;52.70;101870.94;4974468;28;20117;-68
2021/05/20 04:33:26;;;;;;;12.80;6.57;;;;;;;6.38;53.25;101870.84;4971498;28;20042;-68
2021/05/20 04:35:52;;;;;;;10.35;6.70;;;;;;;6.53;52.95;101861.19;4974634;28;20475;-68
2021/05/20 04:38:17;;;;;;;8.98;6.18;;;;;;;6.54;52.86;101856.00;4954086;28;20483;-68
2021/05/20 04:40:43;;;;;;;14.80;7.07;;;;;;;6.23;53.53;101860.50;4956620;28;20037;-68
2021/05/20 04:43:08;;;;;;;10.57;6.95;;;;;;;6.49;53.40;101861.22;4972010;28;20027;-69
2021/05/20 04:45:35;;;;;;;10.15;6.43;;;;;;;6.65;53.13;101868.91;4959212;28;20077;-68
2021/05/20 04:48:02;;;;;;;8.55;6.07;;;;;;;6.77;52.98;101874.00;4969593;28;20041;-68
2021/05/20 04:50:28;;;;;;;12.55;7.95;;;;;;;7.00;52.94;101875.53;4974063;28;20526;-69
2021/05/20 04:52:53;;;;;;;13.48;7.97;;;;;;;7.73;51.59;101872.22;4962912;28;20038;-69
2021/05/20 04:55:19;;;;;;;14.35;8.32;;;;;;;8.68;51.13;101872.59;4944921;28;20031;-68
2021/05/20 04:57:44;;;;;;;13.88;7.28;;;;;;;10.07;46.48;101875.28;4976631;28;21216;-69
2021/05/20 05:00:12;;;;;;;10.60;7.50;;;;;;;10.74;44.26;101878.06;4961136;28;20042;-69
2021/05/20 05:02:39;;;;;;;11.52;7.55;;;;;;;11.69;43.10;101870.31;4970905;28;20036;-68
2021/05/20 05:05:06;;;;;;;12.55;7.88;;;;;;;11.76;42.02;101876.25;4956832;28;20026;-69
2021/05/20 05:07:31;;;;;;;11.82;7.25;;;;;;;11.73;40.86;101874.59;4974536;28;20026;-69
2021/05/20 05:09:57;;;;;;;9.07;6.65;;;;;;;12.16;39.14;101875.94;4961396;28;20463;-69
2021/05/20 05:12:23;;;;;;;11.07;6.22;;;;;;;12.24;39.88;101887.03;4948282;28;20045;-68
2021/05/20 05:14:48;;;;;;;9.63;6.32;;;;;;;11.11;42.52;101885.03;4971658;28;20034;-69
2021/05/20 05:17:14;;;;;;;10.45;6.43;;;;;;;11.24;41.96;101879.41;4972748;28;20113;-69
2021/05/20 05:19:40;;;;;;;7.53;5.47;;;;;;;12.08;38.91;101880.53;4960406;28;20037;-69
2021/05/20 05:22:06;;;;;;;8.93;5.70;;;;;;;12.38;39.16;101876.13;4962024;28;20050;-69
2021/05/20 05:24:32;;;;;;;12.70;7.53;;;;;;;10.41;43.63;101880.56;4970681;28;20034;-69
2021/05/20 05:26:58;;;;;;;9.90;6.43;;;;;;;9.98;44.01;101876.31;4976180;28;20407;-69
2021/05/20 05:29:24;;;;;;;10.35;6.47;;;;;;;10.01;44.56;101876.25;4978694;28;20019;-69
2021/05/20 05:31:49;;;;;;;9.07;6.57;;;;;;;11.27;42.93;101880.25;4963717;28;20037;-68
2021/05/20 05:34:16;;;;;;;9.73;6.78;;;;;;;12.85;42.68;101880.78;4973656;28;20456;-69
2021/05/20 05:36:42;;;;;;;8.40;6.95;;;;;;;13.79;35.87;101885.34;4955453;28;20107;-69
2021/05/20 05:39:07;;;;;;;8.18;5.88;;;;;;;15.50;35.02;101887.13;4973459;28;20113;-69
2021/05/20 05:41:33;;;;;;;6.82;6.10;;;;;;;16.27;31.79;101883.63;4972478;28;20039;-69
2021/05/20 05:43:59;;;;;;;8.60;6.18;;;;;;;15.94;35.46;101893.00;4961665;28;20070;-69
2021/05/20 05:46:24;;;;;;;5.60;4.93;;;;;;;17.68;31.06;101886.16;4940208;28;20041;-69
2021/05/20 05:48:50;;;;;;;7.25;5.85;;;;;;;17.56;32.45;101883.25;4971780;28;20749;-68
2021/05/20 05:51:18;;;;;;;5.28;4.82;;;;;;;17.51;30.51;101885.28;4972230;28;20141;-68
2021/05/20 05:53:44;;;;;;;7.70;6.15;;;;;;;18.04;30.46;101878.84;4976277;28;20030;-69
2021/05/20 05:56:09;;;;;;;11.48;7.10;;;;;;;18.74;29.97;101878.41;4979360;28;20038;-68
2021/05/20 05:58:35;;;;;;;8.75;5.38;;;;;;;17.98;30.33;101880.97;4976591;28;20022;-68
2021/05/20 06:01:02;;;;;;;7.88;6.20;;;;;;;17.53;32.22;101895.78;4962742;28;20027;-67
2021/05/20 06:03:29;;;;;;;5.95;5.45;;;;;;;18.90;31.02;101894.28;4960762;28;20030;-68
2021/05/20 06:05:54;;;;;;;6.97;5.57;;;;;;;18.60;28.67;101894.25;4977751;28;20037;-68
2021/05/20 06:08:20;;;;;;;6.90;6.20;;;;;;;17.78;29.74;101888.22;4962181;28;20034;-68
2021/05/20 06:10:46;;;;;;;10.57;5.70;;;;;;;18.96;30.61;101885.13;4959801;28;20034;-68
2021/05/20 06:13:12;;;;;;;7.95;6.93;;;;;;;18.35;29.45;101887.72;4972881;28;20042;-68
2021/05/20 06:15:38;;;;;;;7.07;6.38;;;;;;;15.89;33.98;101897.66;4950662;28;20137;-68
2021/05/20 06:18:04;;;;;;;7.28;5.90;;;;;;;14.90;37.92;101887.06;4961411;28;20173;-68
2021/05/20 06:20:30;;;;;;;7.35;6.03;;;;;;;14.00;39.27;101883.66;4963848;28;20046;-68
2021/05/20 06:22:55;;;;;;;11.35;7.15;;;;;;;14.65;37.34;101890.72;4945876;28;20190;-68
2021/05/20 06:25:23;;;;;;;8.25;7.45;;;;;;;15.20;37.31;101891.97;4974269;28;20771;-68
2021/05/20 06:27:48;;;;;;;9.73;8.07;;;;;;;13.72;38.04;101889.97;4959441;28;20495;-68
2021/05/20 06:30:14;;;;;;;8.20;6.70;;;;;;;15.28;38.36;101893.38;4974619;28;20031;-68
2021/05/20 06:32:40;;;;;;;11.88;7.50;;;;;;;17.85;32.42;101888.75;4965784;28;20050;-69
2021/05/20 06:35:06;;;;;;;7.43;6.63;;;;;;;19.81;28.19;101883.44;4973494;28;20039;-69
2021/05/20 06:37:32;;;;;;;10.45;7.07;;;;;;;21.98;26.23;101881.13;4975674;28;20035;-68
2021/05/20 06:39:58;;;;;;;8.40;6.38;;;;;;;23.55;26.13;101879.06;4956189;28;20061;-69
2021/05/20 06:42:23;;;;;;;7.55;6.80;;;;;;;22.49;27.86;101893.34;4966523;28;20054;-68
2021/05/20 06:44:49;;;;;;;9.73;7.03;;;;;;;21.46;27.25;101892.81;4958970;28;20035;-68
2021/05/20 06:47:15;;;;;;;7.88;7.07;;;;;;;21.95;26.81;101896.44;4958044;28;20129;-69
2021/05/20 06:49:40;;;;;;;8.82;7.43;;;;;;;22.45;25.75;101883.94;4961118;28;20042;-69
2021/05/20 06:52:06;;;;;;;9.02;6.38;;;;;;;23.50;25.29;101897.22;4977176;28;20042;-69
2021/05/20 06:54:32;;;;;;;9.38;6.07;;;;;;;21.58;27.61;101891.13;4982107;28;20053;-69
2021/05/20 06:59:57;;;;;;;8.30;7.25;;;;;;;22.09;26.39;101891.03;4937088;28;20104;-68
2021/05/20 07:02:27;;;;;;;7.72;6.80;;;;;;;20.15;30.39;101891.88;4959797;28;20587;-68
2021/05/20 07:04:53;;;;;;;9.68;6.63;;;;;;;20.03;29.82;101885.56;4974621;28;20026;-68
2021/05/20 07:07:20;;;;;;;9.15;7.75;;;;;;;17.18;33.33;101890.50;4965297;28;20042;-68
2021/05/20 07:09:53;;;;;;;8.75;7.47;;;;;;;16.13;36.10;101887.78;4971631;28;20661;-67
2021/05/20 07:12:19;;;;;;;10.32;8.02;;;;;;;15.03;37.58;101896.16;4972975;28;20126;-69
2021/05/20 07:14:44;;;;;;;8.95;7.85;;;;;;;14.63;39.56;101889.94;4942625;28;20096;-68
2021/05/20 07:17:11;;;;;;;11.13;7.88;;;;;;;15.28;37.89;101892.50;4974190;28;20143;-68
2021/05/20 07:19:37;;;;;;;9.52;7.18;;;;;;;17.83;32.51;101890.63;4970463;28;20034;-67
2021/05/20 07:22:04;;;;;;;7.07;6.45;;;;;;;16.66;34.15;101888.72;4977032;28;20026;-68
2021/05/20 07:24:30;;;;;;;11.30;6.90;;;;;;;18.31;31.96;101895.94;4965019;28;20034;-68
2021/05/20 07:26:55;;;;;;;9.15;7.60;;;;;;;18.15;32.15;101887.97;4944689;28;20027;-68
2021/05/20 07:29:21;;;;;;;8.38;6.05;;;;;;;16.34;35.92;101891.16;4963111;28;20049;-68
2021/05/20 07:31:47;;;;;;;9.25;6.25;;;;;;;15.67;38.75;101891.66;4971359;28;20027;-69
2021/05/20 07:34:12;;;;;;;8.50;6.53;;;;;;;16.39;36.14;101894.41;4975049;28;20034;-69
2021/05/20 07:36:38;;;;;;;8.32;6.40;;;;;;;19.11;31.92;101886.84;4964559;28;20034;-69
2021/05/20 07:39:05;;;;;;;6.32;5.43;;;;;;;21.75;27.30;101872.13;4969790;28;20041;-68
2021/05/20 07:41:31;;;;;;;8.32;5.60;;;;;;;21.06;27.18;101876.13;4969483;28;20644;-68
2021/05/20 07:43:57;;;;;;;6.10;5.50;;;;;;;17.64;32.88;101881.03;4974738;28;20125;-68
2021/05/20 07:46:23;;;;;;;6.85;5.47;;;;;;;16.28;34.71;101883.53;4973542;28;20089;-68
2021/05/20 07:48:48;;;;;;;5.47;4.85;;;;;;;14.92;36.86;101891.34;4954535;28;20037;-68
2021/05/20 07:51:14;;;;;;;5.40;4.28;;;;;;;13.59;40.43;101883.47;4973935;28;20038;-68
2021/05/20 07:53:39;;;;;;;5.28;4.78;;;;;;;15.61;36.34;101890.16;4971397;28;20045;-68
2021/05/20 07:56:05;;;;;;;3.28;2.97;;;;;;;20.43;29.88;101883.84;4956215;28;20514;-68
2021/05/20 07:58:31;;;;;;;4.22;2.67;;;;;;;21.20;27.23;101876.03;4960969;28;20242;-67
2021/05/20 08:01:01;;;;;;;3.85;2.60;;;;;;;17.95;30.47;101887.28;4969415;28;20030;-70
2021/05/20 08:09:02;;;;;;;5.57;2.95;;;;;;;14.43;38.32;101884.63;4956534;28;20516;-68
2021/05/20 08:11:23;;;;;;;5.80;3.65;;;;;;;15.26;37.15;101887.31;4970379;28;20051;-67
2021/05/20 08:13:49;;;;;;;6.22;3.05;;;;;;;15.41;35.35;101882.28;4972190;28;20042;-69
2021/05/20 08:16:14;;;;;;;3.80;2.10;;;;;;;14.28;36.92;101881.69;4967597;28;20085;-68
2021/05/20 08:18:40;;;;;;;3.05;1.27;;;;;;;13.96;37.23;101887.31;4969038;28;20181;-69
2021/05/20 08:21:06;;;;;;;2.05;1.20;;;;;;;13.83;37.53;101885.19;4948519;28;20049;-69
2021/05/20 08:23:33;;;;;;;4.32;2.42;;;;;;;13.59;38.23;101886.09;4937762;28;20046;-68
2021/05/20 08:26:00;;;;;;;3.83;3.50;;;;;;;12.95;38.88;101879.53;4971463;28;20747;-68
2021/05/20 08:28:26;;;;;;;6.15;2.28;;;;;;;13.22;40.01;101880.34;4958155;28;20038;-70
2021/05/20 08:30:52;;;;;;;5.85;1.48;;;;;;;12.56;40.51;101885.19;4957473;28;20032;-67
2021/05/20 08:33:17;;;;;;;4.32;1.02;;;;;;;11.93;40.24;101888.88;4970058;28;20058;-68
2021/05/20 08:35:43;;;;;;;3.17;1.58;;;;;;;12.05;40.07;101878.88;4952657;28;20089;-68
2021/05/20 08:38:10;;;;;;;9.45;1.50;;;;;;;12.34;40.24;101884.16;4971133;28;20749;-67
2021/05/20 08:40:36;;;;;;;2.50;1.52;;;;;;;12.42;40.93;101883.00;4971766;28;20085;-69
2021/05/20 08:43:02;;;;;;;2.67;1.45;;;;;;;12.58;39.85;101870.25;4968677;28;20066;-68
2021/05/20 08:45:30;;;;;;;1.75;0.63;;;;;;;12.57;39.91;101865.91;4969782;28;20062;-68
2021/05/20 08:47:58;;;;;;;4.05;0.63;;;;;;;13.15;39.63;101870.13;4958378;28;20026;-68
2021/05/20 08:50:26;;;;;;;1.80;0.50;;;;;;;13.14;39.33;101865.75;4955998;28;20105;-67
2021/05/20 08:52:55;;;;;;;3.08;0.55;;;;;;;16.05;36.29;101867.97;4969435;28;20638;-68
2021/05/20 08:55:23;;;;;;;3.95;0.80;;;;;;;19.44;28.46;101861.88;4974054;28;20039;-68
2021/05/20 08:57:49;;;;;;;1.70;0.75;;;;;;;21.01;25.25;101851.69;4973248;28;20026;-69
2021/05/20 09:00:20;;;;;;;1.95;0.90;;;;;;;22.35;23.10;101848.28;4944515;28;20042;-68
2021/05/20 09:02:47;;;;;;;2.33;0.70;;;;;;;23.35;24.29;101846.81;4972938;28;20038;-68
2021/05/20 09:05:20;;;;;;;3.45;0.70;;;;;;;23.33;23.15;101854.09;4969472;28;20440;-68
2021/05/20 09:07:53;;;;;;;2.30;0.80;;;;;;;23.65;23.23;101850.66;4969940;28;20754;-68
2021/05/20 09:10:23;;;;;;;4.10;1.08;;;;;;;20.68;25.42;101845.88;4969130;28;20058;-68
2021/05/20 09:12:51;;;;;;;2.05;1.23;;;;;;;18.52;28.30;101848.84;4963555;28;20109;-68
2021/05/20 09:15:23;;;;;;;3.08;1.13;;;;;;;16.40;32.24;101850.44;4971061;28;20356;-68
2021/05/20 09:17:49;;;;;;;;;;;;;;;15.81;33.72;101849.69;4964330;28;20062;-68
2021/05/20 09:20:15;;;;;;;1.45;0.70;;;;;;;15.10;34.44;101854.63;4957879;28;19914;-68
2021/05/20 09:22:41;;;;;;;1.35;0.88;;;;;;;15.03;35.50;101859.31;4971693;28;20125;-67
2021/05/20 09:25:09;;;;;;;2.25;0.98;;;;;;;14.82;34.69;101854.97;4955641;28;20030;-68
2021/05/20 09:27:36;;;;;;;2.92;1.65;;;;;;;15.54;34.36;101857.94;4963957;28;20053;-69
2021/05/20 09:30:09;;;;;;;1.88;0.90;;;;;;;16.26;32.74;101855.53;4957575;28;20030;-68
2021/05/20 09:32:53;;;;;;;2.25;0.75;;;;;;;17.59;30.18;101851.34;4965015;28;20073;-68
2021/05/20 09:35:44;;;;;;;2.15;0.50;;;;;;;18.26;29.13;101841.47;4971752;28;20530;-68
2021/05/20 09:38:20;;;;;;;2.63;0.80;;;;;;;17.15;31.24;101841.34;4951284;28;20050;-68
2021/05/20 09:41:02;;;;;;;3.33;0.60;;;;;;;17.77;29.26;101843.34;4975431;28;20049;-68
2021/05/20 09:43:33;;;;;;;1.63;0.40;;;;;;;18.00;30.28;101840.25;4967090;28;20081;-68
2021/05/20 09:46:18;;;;;;;1.55;0.52;;;;;;;17.99;29.47;101837.72;4957309;28;20515;-68
2021/05/20 09:48:49;;;;;;;0.98;0.63;;;;;;;18.00;28.37;101834.13;4959366;28;20938;-68
2021/05/20 09:51:22;;;;;;;1.95;0.60;;;;;;;16.86;31.63;101840.22;4972708;28;20499;-67
2021/05/20 09:53:51;;;;;;;1.92;0.43;;;;;;;16.19;32.50;101844.41;4972927;28;20030;-68
2021/05/20 09:56:30;;;;;;;1.48;0.60;;;;;;;16.04;33.29;101842.50;4959034;28;20043;-68
2021/05/20 09:58:56;;;;;;;1.90;1.00;;;;;;;15.08;37.80;101845.94;4942838;28;20137;-69
2021/05/20 10:01:22;;;;;;;2.38;0.77;;;;;;;15.09;36.88;101848.50;4973800;28;20528;-68
2021/05/20 10:03:55;;;;;;;1.88;1.35;;;;;;;15.02;37.16;101844.44;4960326;28;20088;-68
2021/05/20 10:06:43;;;;;;;2.35;0.60;;;;;;;15.80;36.90;101848.00;4960025;28;20733;-68
2021/05/20 10:09:13;;;;;;;4.65;0.90;;;;;;;16.61;33.60;101835.31;4970291;28;20045;-68
2021/05/20 10:11:41;;;;;;;1.15;0.30;;;;;;;17.00;31.83;101839.50;4957254;28;20034;-68
2021/05/20 10:14:07;;;;;;;0.70;0.20;;;;;;;16.83;31.54;101830.69;4973807;28;20030;-68
2021/05/20 10:16:34;;;;;;;0.47;0.17;;;;;;;17.30;29.70;101841.47;4974856;28;20760;-69
2021/05/20 10:19:00;;;;;;;1.60;0.50;;;;;;;17.44;30.03;101833.66;4959989;28;20042;-68
2021/05/20 10:21:28;;;;;;;0.57;0.30;;;;;;;17.21;30.72;101825.16;4959248;28;20035;-68
2021/05/20 10:23:54;;;;;;;1.17;0.47;;;;;;;18.67;29.57;101819.66;4939491;28;666081;-68
2021/05/20 10:26:20;;;;;;;1.10;0.52;;;;;;;17.28;28.42;101819.56;4976685;28;20022;-68
2021/05/20 10:28:47;;;;;;;4.85;0.90;;;;;;;17.66;29.61;101814.88;4963186;28;20089;-68
2021/05/20 10:31:13;;;;;;;1.25;0.50;;;;;;;16.42;30.16;101825.69;4957715;28;20112;-68
2021/05/20 10:33:40;;;;;;;1.00;0.60;;;;;;;16.47;30.47;101814.91;4974623;28;20039;-68
2021/05/20 10:36:06;;;;;;;4.55;0.80;;;;;;;16.99;30.86;101814.88;4958945;28;20031;-68
2021/05/20 10:38:32;;;;;;;1.85;1.38;;;;;;;17.85;30.58;101814.72;4961060;28;20037;-68
2021/05/20 10:41:11;;;;;;;1.50;1.00;;;;;;;18.22;30.59;101807.34;4957758;28;20033;-68
2021/05/20 10:43:38;;;;;;;2.13;0.68;;;;;;;17.97;30.11;101806.06;4976225;28;20049;-67
2021/05/20 10:46:06;;;;;;;3.25;0.95;;;;;;;18.70;29.04;101808.06;4958013;28;20034;-68
2021/05/20 10:48:35;;;;;;;1.65;0.73;;;;;;;18.98;28.38;101803.75;4978121;28;20070;-68
2021/05/20 10:51:04;;;;;;;2.42;0.75;;;;;;;20.09;27.26;101801.13;4958819;28;20050;-69
2021/05/20 10:53:39;;;;;;;2.05;1.27;;;;;;;18.92;27.85;101804.13;4975333;28;20069;-69
2021/05/20 10:56:05;;;;;;;1.10;0.60;;;;;;;19.82;27.39;101797.63;4974982;28;20046;-67
2021/05/20 10:58:35;;;;;;;2.97;0.80;;;;;;;20.17;26.93;101786.47;4958595;28;20047;-67
2021/05/20 11:01:01;;;;;;;2.92;1.00;;;;;;;19.88;27.47;101798.09;4956853;28;20042;-67
2021/05/20 11:03:48;;;;;;;1.65;1.05;;;;;;;20.19;26.40;101784.56;4974213;28;20753;-70
2021/05/20 11:06:14;;;;;;;2.03;0.80;;;;;;;18.84;27.76;101784.22;4963523;28;20030;-67
2021/05/20 11:08:39;;;;;;;5.97;2.25;;;;;;;17.46;30.68;101792.13;4954178;28;20124;-68
2021/05/20 11:11:19;;;;;;;1.88;1.17;;;;;;;17.47;30.89;101783.28;4971743;28;20038;-67
2021/05/20 11:13:45;;;;;;;3.58;1.65;;;;;;;17.23;30.97;101786.31;4973543;28;20814;-67
2021/05/20 11:16:17;;;;;;;3.08;1.77;;;;;;;16.80;31.03;101777.16;4971595;28;20058;-68
2021/05/20 11:18:44;;;;;;;2.25;1.13;;;;;;;15.71;32.80;101782.53;4957257;28;20034;-68
2021/05/20 11:21:10;;;;;;;2.65;0.95;;;;;;;15.43;32.98;101782.97;4971835;28;20073;-68
2021/05/20 11:23:37;;;;;;;1.35;1.20;;;;;;;15.33;34.28;101786.03;4974782;28;20041;-68
2021/05/20 11:26:15;;;;;;;3.58;1.30;;;;;;;15.07;34.27;101776.63;4969720;28;20058;-67
2021/05/20 11:28:53;;;;;;;2.70;1.50;;;;;;;14.83;34.85;101781.19;4970342;28;20127;-68
2021/05/20 11:31:19;;;;;;;2.42;1.67;;;;;;;15.68;34.86;101774.75;4956084;28;20718;-68
2021/05/20 11:33:56;;;;;;;1.98;1.58;;;;;;;16.40;33.49;101766.84;4958533;28;20090;-68
2021/05/20 11:36:22;;;;;;;1.90;1.33;;;;;;;15.65;34.22;101767.88;4970168;28;20034;-68
2021/05/20 11:39:08;;;;;;;2.55;1.70;;;;;;;15.13;34.69;101773.72;4959248;28;20495;-68
2021/05/20 11:41:35;;;;;;;2.38;1.98;;;;;;;15.06;34.42;101766.16;4973742;28;20037;-67